Time;durP1;ratioP1;P1;durP2;ratioP2;P2;SDS_P1;SDS_P2;PMS_P1;PMS_P2;Temp;Humidity;BMP_temperature;BMP_pressure;BME280_temperature;BME280_humidity;BME280_pressure;Samples;Min_cycle;Max_cycle;Signal;HPM_P1;HPM_P2
2023/12/24 00:00:22;;;;;;;;;;;;;;;9.74;63.90;97214.88;4472804;32;19996;-78
2023/12/24 00:02:48;;;;;;;;;;;;;;;9.51;64.43;97221.25;4471936;32;19996;-79
2023/12/24 00:05:15;;;;;;;;;;;;;;;9.47;64.31;97217.16;4471803;32;19985;-79
2023/12/24 00:07:42;;;;;;;;;;;;;;;9.65;63.64;97209.38;4458604;32;19976;-78
2023/12/24 00:10:09;;;;;;;;;;;;;;;10.10;62.18;97211.25;4472400;32;19964;-78
2023/12/24 00:12:37;;;;;;;;;;;;;;;9.63;63.44;97211.22;4472602;32;19972;-78
2023/12/24 00:15:05;;;;;;;;;;;;;;;10.07;61.54;97201.94;4472534;32;19968;-79
2023/12/24 00:17:32;;;;;;;;;;;;;;;9.54;63.36;97208.19;4472340;32;19976;-79
2023/12/24 00:19:59;;;;;;;;;;;;;;;9.88;63.15;97209.00;4472704;32;19973;-78
2023/12/24 00:22:29;;;;;;;;;;;;;;;9.43;64.57;97214.81;4472559;32;19972;-78
2023/12/24 00:24:56;;;;;;;;;;;;;;;9.60;64.95;97213.97;4472194;32;20374;-78
2023/12/24 00:27:22;;;;;;;;;;;;;;;9.89;63.73;97213.25;4472484;32;20315;-79
2023/12/24 00:29:49;;;;;;;;;;;;;;;10.23;61.69;97221.78;4472650;32;20010;-79
2023/12/24 00:32:16;;;;;;;;;;;;;;;9.93;62.58;97221.66;4472269;32;19995;-78
2023/12/24 00:34:43;;;;;;;;;;;;;;;9.78;63.98;97211.25;4472361;32;19960;-78
2023/12/24 00:37:10;;;;;;;;;;;;;;;9.93;64.08;97221.66;4472389;32;19986;-78
2023/12/24 00:39:37;;;;;;;;;;;;;;;10.60;61.04;97223.16;4472196;32;19976;-79
2023/12/24 00:42:03;;;;;;;;;;;;;;;9.79;64.17;97227.53;4472527;32;19986;-79
2023/12/24 00:44:30;;;;;;;;;;;;;;;10.27;62.13;97218.13;4472313;32;19957;-79
2023/12/24 00:46:57;;;;;;;;;;;;;;;10.39;62.02;97226.00;4471962;32;20026;-79
2023/12/24 00:49:25;;;;;;;;;;;;;;;10.68;61.03;97237.28;4472488;32;20468;-79
2023/12/24 00:51:53;;;;;;;;;;;;;;;10.19;62.66;97239.12;4471972;32;20319;-79
2023/12/24 00:54:20;;;;;;;;;;;;;;;9.97;62.95;97251.50;4472302;32;19961;-78
2023/12/24 00:56:46;;;;;;;;;;;;;;;10.76;60.38;97243.78;4472168;32;20315;-78
2023/12/24 00:59:14;;;;;;;;;;;;;;;10.83;59.70;97245.91;4472039;32;19976;-78
2023/12/24 01:01:40;;;;;;;;;;;;;;;10.30;61.74;97244.56;4472235;32;19964;-78
2023/12/24 01:04:07;;;;;;;;;;;;;;;10.63;60.30;97247.06;4472051;32;20406;-78
2023/12/24 01:06:34;;;;;;;;;;;;;;;11.01;58.58;97257.78;4471833;32;19972;-78
2023/12/24 01:09:01;;;;;;;;;;;;;;;10.37;60.51;97261.38;4472413;32;19980;-78
2023/12/24 01:11:27;;;;;;;;;;;;;;;9.42;64.29;97255.19;4472265;32;19972;-78
2023/12/24 01:13:54;;;;;;;;;;;;;;;9.51;64.12;97259.03;4471777;32;20307;-78
2023/12/24 01:16:21;;;;;;;;;;;;;;;10.41;61.10;97269.75;4471705;32;19995;-78
2023/12/24 01:18:48;;;;;;;;;;;;;;;10.18;62.42;97262.41;4472278;32;19984;-78
2023/12/24 01:21:14;;;;;;;;;;;;;;;10.15;62.35;97271.13;4472049;32;19972;-78
2023/12/24 01:23:41;;;;;;;;;;;;;;;10.23;61.69;97265.63;4472049;32;19978;-78
2023/12/24 01:26:08;;;;;;;;;;;;;;;10.47;60.82;97259.13;4471959;32;19976;-78
2023/12/24 01:28:35;;;;;;;;;;;;;;;10.27;60.66;97282.56;4471834;32;19984;-79
2023/12/24 01:31:01;;;;;;;;;;;;;;;10.02;62.40;97272.72;4472101;32;20327;-79
2023/12/24 01:33:28;;;;;;;;;;;;;;;9.34;64.17;97262.44;4471834;32;19964;-78
2023/12/24 01:35:55;;;;;;;;;;;;;;;9.99;61.72;97260.78;4471629;32;19968;-78
2023/12/24 01:38:21;;;;;;;;;;;;;;;9.42;64.04;97272.37;4472112;32;19980;-78
2023/12/24 01:40:49;;;;;;;;;;;;;;;8.83;67.10;97269.28;4471541;32;19972;-78
2023/12/24 01:43:16;;;;;;;;;;;;;;;9.20;65.90;97273.44;4471970;32;19965;-78
2023/12/24 01:45:43;;;;;;;;;;;;;;;9.33;65.56;97280.56;4471879;32;20325;-78
2023/12/24 01:48:11;;;;;;;;;;;;;;;9.00;66.46;97276.16;4471818;32;20043;-78
2023/12/24 01:50:38;;;;;;;;;;;;;;;7.89;71.52;97276.19;4471934;32;19987;-78
2023/12/24 01:53:04;;;;;;;;;;;;;;;7.96;72.29;97285.28;4457740;32;19964;-78
2023/12/24 01:55:31;;;;;;;;;;;;;;;8.01;72.65;97285.91;4471374;32;20335;-78
2023/12/24 01:57:58;;;;;;;;;;;;;;;7.71;73.69;97280.37;4457946;32;19983;-78
2023/12/24 02:00:25;;;;;;;;;;;;;;;7.95;72.63;97287.00;4471852;32;20021;-78
2023/12/24 02:02:51;;;;;;;;;;;;;;;8.21;72.08;97295.31;4457049;32;20306;-78
2023/12/24 02:05:18;;;;;;;;;;;;;;;8.40;70.97;97291.84;4471633;32;19980;-78
2023/12/24 02:07:45;;;;;;;;;;;;;;;8.62;69.90;97273.69;4471704;32;20032;-78
2023/12/24 02:10:12;;;;;;;;;;;;;;;8.13;71.81;97275.91;4471319;32;19982;-78
2023/12/24 02:12:39;;;;;;;;;;;;;;;8.70;70.96;97288.75;4471677;32;20304;-78
2023/12/24 02:15:05;;;;;;;;;;;;;;;9.44;66.57;97298.88;4457470;32;20003;-78
2023/12/24 02:17:32;;;;;;;;;;;;;;;8.44;70.25;97304.56;4471268;32;20033;-78
2023/12/24 02:20:00;;;;;;;;;;;;;;;9.06;67.93;97303.34;4471489;32;20043;-78
2023/12/24 02:22:27;;;;;;;;;;;;;;;7.96;72.25;97298.94;4471417;32;19964;-78
2023/12/24 02:24:54;;;;;;;;;;;;;;;7.90;74.00;97313.81;4471026;32;19973;-78
2023/12/24 02:27:22;;;;;;;;;;;;;;;7.59;76.24;97311.72;4471413;32;19984;-78
2023/12/24 02:29:49;;;;;;;;;;;;;;;7.56;76.55;97317.81;4459138;32;19992;-78
2023/12/24 02:32:16;;;;;;;;;;;;;;;7.26;79.76;97309.66;4473076;32;20321;-78
2023/12/24 02:34:43;;;;;;;;;;;;;;;7.65;77.38;97307.12;4459119;32;20036;-77
2023/12/24 02:37:10;;;;;;;;;;;;;;;7.65;77.73;97306.31;4458989;32;20043;-77
2023/12/24 02:39:41;;;;;;;;;;;;;;;8.08;75.27;97307.84;4473283;32;19968;-77
2023/12/24 02:42:08;;;;;;;;;;;;;;;8.05;75.78;97303.69;4473337;32;19968;-77
2023/12/24 02:44:35;;;;;;;;;;;;;;;8.15;74.97;97310.97;4472886;32;20029;-77
2023/12/24 02:47:02;;;;;;;;;;;;;;;8.41;73.80;97315.81;4473126;32;19979;-77
2023/12/24 02:49:29;;;;;;;;;;;;;;;8.47;73.65;97306.97;4473357;32;19986;-77
2023/12/24 02:51:56;;;;;;;;;;;;;;;8.30;75.37;97292.31;4472902;32;20028;-78
2023/12/24 02:54:23;;;;;;;;;;;;;;;8.92;72.10;97297.09;4472986;32;20309;-77
2023/12/24 02:56:49;;;;;;;;;;;;;;;8.41;74.74;97292.69;4473043;32;20255;-77
2023/12/24 02:59:16;;;;;;;;;;;;;;;8.34;76.10;97292.12;4472864;32;20649;-77
2023/12/24 03:01:44;;;;;;;;;;;;;;;8.64;74.55;97300.16;4473133;32;20050;-77
2023/12/24 03:04:10;;;;;;;;;;;;;;;8.51;75.42;97306.78;4472756;32;19996;-77
2023/12/24 03:06:37;;;;;;;;;;;;;;;8.31;77.30;97309.41;4472707;32;19986;-77
2023/12/24 03:09:04;;;;;;;;;;;;;;;8.36;76.91;97308.31;4473207;32;19972;-77
2023/12/24 03:11:30;;;;;;;;;;;;;;;8.56;75.89;97297.09;4473060;32;19980;-77
2023/12/24 03:13:57;;;;;;;;;;;;;;;8.54;76.07;97309.22;4472542;32;20028;-77
2023/12/24 03:16:24;;;;;;;;;;;;;;;8.34;77.04;97310.13;4472868;32;20037;-77
2023/12/24 03:18:51;;;;;;;;;;;;;;;8.51;76.91;97299.06;4473134;32;19990;-77
2023/12/24 03:21:17;;;;;;;;;;;;;;;8.69;76.42;97290.47;4472711;32;19968;-77
2023/12/24 03:23:44;;;;;;;;;;;;;;;8.61;77.10;97282.31;4472981;32;19990;-77
2023/12/24 03:26:20;;;;;;;;;;;;;;;9.11;75.82;97293.66;4472589;32;19979;-77
2023/12/24 03:28:48;;;;;;;;;;;;;;;9.10;75.76;97285.09;4472978;32;20044;-77
2023/12/24 03:31:15;;;;;;;;;;;;;;;9.49;73.36;97284.88;4472877;32;19988;-77
2023/12/24 03:33:43;;;;;;;;;;;;;;;9.60;73.26;97278.34;4472439;32;20347;-77
2023/12/24 03:36:10;;;;;;;;;;;;;;;9.62;72.96;97261.06;4458841;32;19984;-78
2023/12/24 03:38:37;;;;;;;;;;;;;;;9.51;73.74;97262.44;4472955;32;20046;-78
2023/12/24 03:41:03;;;;;;;;;;;;;;;10.25;69.77;97248.31;4458522;32;19983;-78
2023/12/24 03:43:30;;;;;;;;;;;;;;;9.95;71.54;97250.75;4472650;32;19980;-78
2023/12/24 03:45:57;;;;;;;;;;;;;;;10.02;70.40;97249.50;4472771;32;19984;-78
2023/12/24 03:48:24;;;;;;;;;;;;;;;10.17;71.33;97259.00;4472555;32;19976;-78
2023/12/24 03:50:51;;;;;;;;;;;;;;;10.49;70.59;97249.53;4472883;32;20350;-78
2023/12/24 03:53:18;;;;;;;;;;;;;;;11.01;67.83;97252.62;4472759;32;19989;-78
2023/12/24 03:55:44;;;;;;;;;;;;;;;10.95;68.46;97257.28;4472236;32;19973;-78
2023/12/24 03:58:11;;;;;;;;;;;;;;;10.94;68.85;97253.03;4472797;32;20333;-78
2023/12/24 04:00:38;;;;;;;;;;;;;;;10.72;69.70;97249.09;4472808;32;20023;-78
2023/12/24 04:03:05;;;;;;;;;;;;;;;10.81;71.13;97252.91;4472055;32;20044;-78
2023/12/24 04:05:31;;;;;;;;;;;;;;;11.37;68.55;97258.31;4472568;32;20463;-78
2023/12/24 04:07:58;;;;;;;;;;;;;;;11.69;66.52;97264.19;4472650;32;20310;-78
2023/12/24 04:10:25;;;;;;;;;;;;;;;11.50;66.02;97262.72;4472357;32;19982;-78
2023/12/24 04:12:52;;;;;;;;;;;;;;;11.03;67.30;97257.69;4472610;32;19980;-78
2023/12/24 04:15:19;;;;;;;;;;;;;;;11.37;66.78;97289.31;4472224;32;20000;-78
2023/12/24 04:17:46;;;;;;;;;;;;;;;11.20;67.40;97290.31;4472575;32;20028;-78
2023/12/24 04:20:13;;;;;;;;;;;;;;;11.74;65.09;97288.00;4472640;32;19972;-78
2023/12/24 04:22:40;;;;;;;;;;;;;;;11.43;66.29;97287.22;4472199;32;19987;-77
2023/12/24 04:25:07;;;;;;;;;;;;;;;10.65;69.83;97306.31;4472679;32;20029;-77
2023/12/24 04:27:33;;;;;;;;;;;;;;;10.08;72.85;97309.28;4472646;32;20021;-78
2023/12/24 04:30:00;;;;;;;;;;;;;;;9.90;73.18;97322.31;4472243;32;19968;-77
2023/12/24 04:32:27;;;;;;;;;;;;;;;9.33;74.78;97322.56;4472337;32;19994;-77
2023/12/24 04:34:53;;;;;;;;;;;;;;;9.21;74.13;97312.88;4472295;32;20289;-77
2023/12/24 04:37:20;;;;;;;;;;;;;;;9.53;71.93;97299.25;4472215;32;19976;-77
2023/12/24 04:39:47;;;;;;;;;;;;;;;9.08;72.43;97296.38;4472528;32;20019;-78
2023/12/24 04:42:13;;;;;;;;;;;;;;;8.90;73.62;97308.38;4472594;32;19972;-77
2023/12/24 04:44:40;;;;;;;;;;;;;;;8.66;74.56;97310.37;4472089;32;20311;-77
2023/12/24 04:47:07;;;;;;;;;;;;;;;8.79;74.89;97311.47;4472189;32;19982;-77
2023/12/24 04:49:34;;;;;;;;;;;;;;;9.13;72.65;97309.84;4472529;32;19973;-77
2023/12/24 04:52:01;;;;;;;;;;;;;;;8.62;74.63;97322.56;4457327;32;19976;-77
2023/12/24 04:54:27;;;;;;;;;;;;;;;8.43;76.22;97316.59;4472221;32;19992;-77
2023/12/24 04:56:54;;;;;;;;;;;;;;;8.87;74.16;97309.38;4472167;32;19972;-77
2023/12/24 04:59:21;;;;;;;;;;;;;;;8.53;75.45;97322.97;4472220;32;19967;-77
2023/12/24 05:01:48;;;;;;;;;;;;;;;7.81;79.49;97338.16;4472380;32;19968;-77
2023/12/24 05:04:15;;;;;;;;;;;;;;;7.76;79.93;97322.94;4471711;32;19980;-77
2023/12/24 05:06:42;;;;;;;;;;;;;;;7.16;83.09;97323.78;4472162;32;20434;-77
2023/12/24 05:09:09;;;;;;;;;;;;;;;7.49;82.38;97317.25;4472460;32;20003;-77
2023/12/24 05:11:37;;;;;;;;;;;;;;;7.49;82.09;97326.69;4471948;32;19999;-77
2023/12/24 05:14:04;;;;;;;;;;;;;;;7.39;84.33;97315.12;4472062;32;20363;-77
2023/12/24 05:16:31;;;;;;;;;;;;;;;7.54;83.23;97325.56;4472141;32;19987;-77
2023/12/24 05:18:58;;;;;;;;;;;;;;;7.66;82.20;97334.50;4457976;32;20020;-77
2023/12/24 05:21:29;;;;;;;;;;;;;;;7.49;83.03;97332.63;4472146;32;20010;-77
2023/12/24 05:23:56;;;;;;;;;;;;;;;7.56;82.79;97333.22;4472151;32;19984;-77
2023/12/24 05:26:24;;;;;;;;;;;;;;;7.69;81.81;97331.81;4471719;32;19987;-77
2023/12/24 05:28:54;;;;;;;;;;;;;;;7.53;82.45;97323.06;4472259;32;20308;-77
2023/12/24 05:31:20;;;;;;;;;;;;;;;7.67;81.70;97333.59;4472217;32;20022;-77
2023/12/24 05:33:47;;;;;;;;;;;;;;;8.51;77.01;97331.66;4471820;32;19976;-77
2023/12/24 05:36:14;;;;;;;;;;;;;;;8.51;75.70;97335.06;4472074;32;20479;-77
2023/12/24 05:38:41;;;;;;;;;;;;;;;8.83;74.40;97333.56;4472168;32;19963;-77
2023/12/24 05:41:12;;;;;;;;;;;;;;;8.75;74.64;97345.12;4471753;32;19972;-78
2023/12/24 05:43:40;;;;;;;;;;;;;;;8.49;75.20;97338.59;4471964;32;19991;-77
2023/12/24 05:46:13;;;;;;;;;;;;;;;9.10;73.10;97335.72;4471782;32;19972;-78
2023/12/24 05:48:40;;;;;;;;;;;;;;;9.24;73.21;97333.31;4471616;32;20455;-78
2023/12/24 05:51:07;;;;;;;;;;;;;;;9.02;74.81;97333.50;4472042;32;19991;-78
2023/12/24 05:53:34;;;;;;;;;;;;;;;9.38;73.15;97345.53;4471585;32;19972;-78
2023/12/24 05:56:01;;;;;;;;;;;;;;;10.19;70.04;97352.53;4471713;32;19987;-78
2023/12/24 05:58:27;;;;;;;;;;;;;;;10.76;67.80;97354.75;4471876;32;19968;-78
2023/12/24 06:00:54;;;;;;;;;;;;;;;10.85;67.85;97347.31;4471520;32;19976;-79
2023/12/24 06:03:21;;;;;;;;;;;;;;;10.31;69.02;97348.53;4453285;32;19988;-78
2023/12/24 06:05:48;;;;;;;;;;;;;;;10.57;66.84;97360.88;4456168;32;20063;-78
2023/12/24 06:08:17;;;;;;;;;;;;;;;10.55;66.50;97373.03;4455775;32;19964;-78
2023/12/24 06:10:44;;;;;;;;;;;;;;;10.34;67.23;97371.59;4456107;32;20611;-78
2023/12/24 06:13:11;;;;;;;;;;;;;;;9.90;68.89;97374.69;4456069;32;19987;-78
2023/12/24 06:15:38;;;;;;;;;;;;;;;9.96;69.06;97368.38;4455609;32;19972;-78
2023/12/24 06:18:05;;;;;;;;;;;;;;;10.24;67.66;97366.06;4455993;32;20338;-78
2023/12/24 06:20:32;;;;;;;;;;;;;;;10.08;67.93;97375.47;4456115;32;19976;-78
2023/12/24 06:22:59;;;;;;;;;;;;;;;10.08;67.22;97373.72;4455648;32;20017;-78
2023/12/24 06:25:26;;;;;;;;;;;;;;;10.12;66.74;97371.84;4455861;32;19981;-78
2023/12/24 06:27:53;;;;;;;;;;;;;;;10.08;66.65;97376.28;4455895;32;19972;-78
2023/12/24 06:30:20;;;;;;;;;;;;;;;9.77;67.27;97369.28;4455522;32;20307;-78
2023/12/24 06:32:47;;;;;;;;;;;;;;;9.78;67.49;97367.53;4455844;32;19984;-78
2023/12/24 06:35:14;;;;;;;;;;;;;;;9.75;67.88;97371.13;4455668;32;20332;-78
2023/12/24 06:37:41;;;;;;;;;;;;;;;9.82;67.18;97384.53;4455381;32;19988;-78
2023/12/24 06:40:08;;;;;;;;;;;;;;;9.06;69.60;97371.09;4455647;32;20016;-77
2023/12/24 06:45:37;;;;;;;;;;;;;;;8.71;71.09;97370.13;4455682;32;19991;-77
2023/12/24 06:48:04;;;;;;;;;;;;;;;8.79;70.23;97380.06;4455561;32;19960;-77
2023/12/24 06:50:31;;;;;;;;;;;;;;;9.19;68.19;97381.63;4455310;32;20034;-77
2023/12/24 06:52:58;;;;;;;;;;;;;;;9.40;67.18;97384.91;4455425;32;19984;-77
2023/12/24 06:55:25;;;;;;;;;;;;;;;9.38;66.94;97381.56;4455206;32;19973;-77
2023/12/24 06:57:51;;;;;;;;;;;;;;;9.89;65.10;97391.06;4455149;32;19968;-77
2023/12/24 07:00:18;;;;;;;;;;;;;;;10.02;64.32;97389.53;4455432;32;20303;-77
2023/12/24 07:02:45;;;;;;;;;;;;;;;10.64;62.01;97382.03;4456659;32;19999;-77
2023/12/24 07:05:11;;;;;;;;;;;;;;;10.38;61.72;97391.97;4470622;32;20402;-77
2023/12/24 07:07:38;;;;;;;;;;;;;;;10.53;61.39;97407.56;4470838;32;20352;-77
2023/12/24 07:10:05;;;;;;;;;;;;;;;10.68;60.58;97399.00;4470852;32;20480;-77
2023/12/24 07:12:32;;;;;;;;;;;;;;;10.75;59.50;97402.09;4470464;32;20032;-78
2023/12/24 07:14:58;;;;;;;;;;;;;;;10.86;59.66;97392.03;4472054;32;19977;-78
2023/12/24 07:17:25;;;;;;;;;;;;;;;10.81;59.10;97388.84;4472999;32;19965;-78
2023/12/24 07:19:52;;;;;;;;;;;;;;;11.06;58.75;97391.78;4472706;32;19972;-78
2023/12/24 07:22:19;;;;;;;;;;;;;;;10.98;57.93;97384.44;4473089;32;19972;-78
2023/12/24 07:24:46;;;;;;;;;;;;;;;11.23;56.53;97394.25;4472582;32;19986;-78
2023/12/24 07:27:13;;;;;;;;;;;;;;;11.36;56.49;97398.72;4472902;32;20023;-78
2023/12/24 07:29:40;;;;;;;;;;;;;;;11.38;55.37;97392.56;4473001;32;20329;-78
2023/12/24 07:32:07;;;;;;;;;;;;;;;11.36;55.17;97393.56;4472685;32;19988;-78
2023/12/24 07:34:33;;;;;;;;;;;;;;;11.62;54.94;97394.69;4472863;32;19963;-78
2023/12/24 07:37:00;;;;;;;;;;;;;;;11.52;54.42;97391.78;4472800;32;19994;-78
2023/12/24 07:39:27;;;;;;;;;;;;;;;11.86;54.31;97394.13;4472667;32;20035;-78
2023/12/24 07:41:55;;;;;;;;;;;;;;;11.78;54.58;97385.09;4472940;32;19984;-78
2023/12/24 07:44:22;;;;;;;;;;;;;;;11.96;53.33;97391.00;4472873;32;19972;-77
2023/12/24 07:46:49;;;;;;;;;;;;;;;11.93;53.01;97381.69;4472399;32;19963;-77
2023/12/24 07:49:15;;;;;;;;;;;;;;;12.13;52.41;97376.16;4472828;32;19968;-77
2023/12/24 07:51:42;;;;;;;;;;;;;;;11.94;52.92;97385.91;4472842;32;19994;-77
2023/12/24 07:54:09;;;;;;;;;;;;;;;12.24;52.49;97396.22;4472405;32;20296;-78
2023/12/24 07:56:36;;;;;;;;;;;;;;;12.24;52.44;97398.78;4472576;32;19990;-78
2023/12/24 07:59:03;;;;;;;;;;;;;;;12.43;51.73;97396.75;4472899;32;19992;-78
2023/12/24 08:01:29;;;;;;;;;;;;;;;12.83;50.61;97399.50;4472396;32;19972;-78
2023/12/24 08:03:56;;;;;;;;;;;;;;;12.22;53.71;97402.37;4472437;32;19968;-78
2023/12/24 08:06:23;;;;;;;;;;;;;;;12.68;52.47;97395.28;4472828;32;20000;-77
2023/12/24 08:08:55;;;;;;;;;;;;;;;12.90;51.06;97397.34;4472565;32;20669;-78
2023/12/24 08:11:22;;;;;;;;;;;;;;;12.80;50.12;97401.44;4472751;32;19980;-78
2023/12/24 08:13:48;;;;;;;;;;;;;;;12.52;49.62;97400.53;4472216;32;19991;-78
2023/12/24 08:16:15;;;;;;;;;;;;;;;12.55;48.87;97407.31;4472414;32;20012;-78
2023/12/24 08:18:42;;;;;;;;;;;;;;;12.69;48.43;97409.87;4472661;32;20011;-78
2023/12/24 08:21:10;;;;;;;;;;;;;;;13.10;47.94;97409.06;4472338;32;19976;-78
2023/12/24 08:23:38;;;;;;;;;;;;;;;12.73;47.87;97416.50;4472499;32;20028;-78
2023/12/24 08:26:05;;;;;;;;;;;;;;;12.43;48.93;97424.37;4471740;32;19994;-78
2023/12/24 08:28:31;;;;;;;;;;;;;;;12.74;49.25;97419.00;4472163;32;19996;-78
2023/12/24 08:30:59;;;;;;;;;;;;;;;12.93;48.18;97418.69;4472627;32;20365;-77
2023/12/24 08:33:25;;;;;;;;;;;;;;;12.78;48.96;97424.00;4472483;32;19986;-77
2023/12/24 08:35:52;;;;;;;;;;;;;;;12.65;48.99;97429.09;4472054;32;19969;-77
2023/12/24 08:38:19;;;;;;;;;;;;;;;12.67;48.84;97425.50;4472492;32;19984;-77
2023/12/24 08:40:46;;;;;;;;;;;;;;;12.64;49.01;97419.66;4472414;32;20449;-78
2023/12/24 08:43:12;;;;;;;;;;;;;;;12.47;48.74;97418.09;4471979;32;20315;-78
2023/12/24 08:45:39;;;;;;;;;;;;;;;12.92;48.75;97423.97;4472415;32;20303;-78
2023/12/24 08:48:06;;;;;;;;;;;;;;;13.38;47.64;97418.53;4472394;32;20307;-78
2023/12/24 08:50:33;;;;;;;;;;;;;;;13.28;47.56;97426.88;4472051;32;19981;-78
2023/12/24 08:53:00;;;;;;;;;;;;;;;13.67;46.86;97435.62;4472347;32;19988;-78
2023/12/24 08:55:26;;;;;;;;;;;;;;;13.68;47.96;97439.06;4472264;32;20330;-78
2023/12/24 08:57:53;;;;;;;;;;;;;;;13.58;49.00;97442.22;4472026;32;19972;-78
2023/12/24 09:00:20;;;;;;;;;;;;;;;13.70;49.38;97447.56;4472385;32;19991;-78
2023/12/24 09:02:47;;;;;;;;;;;;;;;13.71;49.71;97450.03;4471916;32;19991;-78
2023/12/24 09:05:14;;;;;;;;;;;;;;;13.74;49.43;97454.22;4472223;32;19964;-78
2023/12/24 09:07:41;;;;;;;;;;;;;;;13.48;51.26;97454.13;4472373;32;19976;-78
2023/12/24 09:10:07;;;;;;;;;;;;;;;13.43;51.15;97450.16;4472015;32;19993;-78
2023/12/24 09:12:34;;;;;;;;;;;;;;;13.50;50.70;97439.28;4472152;32;19976;-78
2023/12/24 09:15:01;;;;;;;;;;;;;;;13.16;50.63;97437.16;4472222;32;20370;-78
2023/12/24 09:17:28;;;;;;;;;;;;;;;12.98;50.60;97433.97;4471969;32;20069;-78
2023/12/24 09:19:55;;;;;;;;;;;;;;;12.99;48.96;97423.50;4472263;32;20027;-78
2023/12/24 09:22:21;;;;;;;;;;;;;;;12.91;49.26;97424.91;4472268;32;20007;-78
2023/12/24 09:24:48;;;;;;;;;;;;;;;13.01;49.23;97420.81;4471756;32;20017;-78
2023/12/24 09:27:15;;;;;;;;;;;;;;;13.14;48.49;97434.66;4472046;32;20315;-78
2023/12/24 09:29:42;;;;;;;;;;;;;;;13.32;48.56;97437.91;4472241;32;19989;-78
2023/12/24 09:32:09;;;;;;;;;;;;;;;13.52;47.60;97436.62;4471737;32;19972;-78
2023/12/24 09:34:36;;;;;;;;;;;;;;;13.92;46.55;97453.00;4472046;32;19968;-78
2023/12/24 09:37:02;;;;;;;;;;;;;;;13.79;46.87;97445.19;4471611;32;19968;-78
2023/12/24 09:39:29;;;;;;;;;;;;;;;13.67;46.80;97447.75;4471696;32;20073;-78
2023/12/24 09:41:56;;;;;;;;;;;;;;;13.65;46.92;97439.25;4471929;32;19968;-78
2023/12/24 09:44:23;;;;;;;;;;;;;;;13.58;46.91;97437.03;4457952;32;20031;-78
2023/12/24 09:46:50;;;;;;;;;;;;;;;13.64;46.28;97437.59;4471512;32;20109;-78
2023/12/24 09:49:17;;;;;;;;;;;;;;;13.65;46.72;97437.50;4472086;32;20029;-78
2023/12/24 09:51:44;;;;;;;;;;;;;;;13.45;47.09;97428.41;4471904;32;19967;-78
2023/12/24 09:54:10;;;;;;;;;;;;;;;13.70;46.72;97427.63;4471578;32;19979;-78
2023/12/24 09:56:37;;;;;;;;;;;;;;;13.47;47.14;97425.72;4471691;32;19995;-78
2023/12/24 09:59:04;;;;;;;;;;;;;;;13.16;47.71;97417.25;4471667;32;19998;-78
2023/12/24 10:01:40;;;;;;;;;;;;;;;13.37;47.62;97420.28;4471852;32;20368;-78
2023/12/24 10:04:07;;;;;;;;;;;;;;;13.68;47.16;97428.69;4471445;32;20005;-78
2023/12/24 10:06:37;;;;;;;;;;;;;;;13.73;46.58;97430.06;4471290;32;19987;-78
2023/12/24 10:09:05;;;;;;;;;;;;;;;13.28;47.55;97418.28;4457845;32;20002;-78
2023/12/24 10:11:36;;;;;;;;;;;;;;;13.69;47.27;97425.16;4471717;32;20307;-78
2023/12/24 10:14:03;;;;;;;;;;;;;;;13.81;46.15;97411.38;4457856;32;19982;-78
2023/12/24 10:16:30;;;;;;;;;;;;;;;13.57;47.54;97417.25;4471342;32;20029;-78
2023/12/24 10:18:58;;;;;;;;;;;;;;;13.48;48.68;97417.00;4457637;32;20447;-78
2023/12/24 10:21:25;;;;;;;;;;;;;;;13.50;49.65;97415.97;4471214;32;19975;-78
2023/12/24 10:23:52;;;;;;;;;;;;;;;13.91;48.47;97409.84;4471420;32;19978;-78
2023/12/24 10:26:20;;;;;;;;;;;;;;;14.16;48.54;97407.28;4471331;32;19972;-78
2023/12/24 10:28:48;;;;;;;;;;;;;;;13.80;49.64;97405.38;4471138;32;20374;-78
2023/12/24 10:31:24;;;;;;;;;;;;;;;14.30;47.69;97392.56;4471481;32;19986;-78
2023/12/24 10:33:51;;;;;;;;;;;;;;;14.14;47.48;97391.00;4471291;32;19979;-78
2023/12/24 10:36:17;;;;;;;;;;;;;;;13.71;47.96;97399.97;4456781;32;20007;-78
2023/12/24 10:38:44;;;;;;;;;;;;;;;13.71;48.01;97393.00;4457331;32;20465;-78
2023/12/24 10:41:11;;;;;;;;;;;;;;;13.67;47.58;97396.75;4470969;32;19968;-78
2023/12/24 10:43:38;;;;;;;;;;;;;;;13.82;48.20;97395.75;4456968;32;19960;-78
2023/12/24 10:46:04;;;;;;;;;;;;;;;13.63;47.18;97387.53;4471090;32;20017;-78
2023/12/24 10:48:31;;;;;;;;;;;;;;;13.57;48.39;97387.91;4470848;32;19995;-78
2023/12/24 10:50:58;;;;;;;;;;;;;;;14.03;46.71;97390.03;4473265;32;19980;-78
2023/12/24 10:53:24;;;;;;;;;;;;;;;14.31;46.17;97386.44;4459132;32;19961;-78
2023/12/24 10:55:57;;;;;;;;;;;;;;;14.48;46.47;97387.91;4472752;32;20009;-78
2023/12/24 10:58:30;;;;;;;;;;;;;;;14.09;46.17;97394.84;4473265;32;20336;-78
2023/12/24 11:01:07;;;;;;;;;;;;;;;13.94;47.17;97404.47;4473214;32;20319;-78
2023/12/24 11:03:40;;;;;;;;;;;;;;;13.84;48.11;97403.44;4458526;32;19963;-78
2023/12/24 11:06:09;;;;;;;;;;;;;;;13.68;50.17;97413.94;4473115;32;19980;-78
2023/12/24 11:08:36;;;;;;;;;;;;;;;13.22;53.94;97419.50;4473120;32;20000;-78
2023/12/24 11:11:11;;;;;;;;;;;;;;;13.29;54.43;97406.97;4458779;32;19980;-78
2023/12/24 11:13:40;;;;;;;;;;;;;;;13.27;54.52;97407.06;4473059;32;19983;-78
2023/12/24 11:16:07;;;;;;;;;;;;;;;13.28;53.67;97402.72;4472890;32;20003;-78
2023/12/24 11:18:39;;;;;;;;;;;;;;;13.26;53.70;97399.41;4473197;32;20337;-78
2023/12/24 11:21:06;;;;;;;;;;;;;;;13.31;53.32;97410.31;4473075;32;20020;-77
2023/12/24 11:23:33;;;;;;;;;;;;;;;13.25;52.99;97401.16;4472750;32;19987;-77
2023/12/24 11:25:59;;;;;;;;;;;;;;;13.56;51.13;97402.63;4472855;32;20360;-78
2023/12/24 11:28:26;;;;;;;;;;;;;;;13.51;53.99;97409.06;4473115;32;20002;-78
2023/12/24 11:30:53;;;;;;;;;;;;;;;13.45;55.50;97405.09;4472631;32;19987;-78
2023/12/24 11:33:31;;;;;;;;;;;;;;;12.99;56.88;97404.56;4472852;32;19978;-78
2023/12/24 11:36:01;;;;;;;;;;;;;;;12.49;56.05;97402.50;4472738;32;19982;-78
2023/12/24 11:38:33;;;;;;;;;;;;;;;12.68;55.55;97396.09;4472793;32;19976;-78
2023/12/24 11:41:16;;;;;;;;;;;;;;;13.04;55.02;97399.91;4472980;32;20029;-78
2023/12/24 11:43:52;;;;;;;;;;;;;;;13.17;53.81;97398.19;4472759;32;19976;-78
2023/12/24 11:46:19;;;;;;;;;;;;;;;13.61;52.35;97397.16;4472419;32;19984;-78
2023/12/24 11:48:46;;;;;;;;;;;;;;;13.52;53.25;97401.19;4473109;32;20035;-78
2023/12/24 11:51:13;;;;;;;;;;;;;;;13.27;52.83;97401.91;4472700;32;19986;-78
2023/12/24 11:53:41;;;;;;;;;;;;;;;12.95;53.65;97403.06;4472687;32;19964;-78
2023/12/24 11:56:15;;;;;;;;;;;;;;;13.00;54.30;97416.56;4472418;32;19972;-78
2023/12/24 11:58:48;;;;;;;;;;;;;;;13.45;52.94;97419.81;4472655;32;20314;-78
2023/12/24 12:01:24;;;;;;;;;;;;;;;13.39;53.56;97413.22;4472674;32;20311;-78
2023/12/24 12:03:54;;;;;;;;;;;;;;;13.40;54.78;97420.09;4458534;32;19964;-78
2023/12/24 12:06:21;;;;;;;;;;;;;;;13.55;55.19;97424.28;4458164;32;19975;-77
2023/12/24 12:08:48;;;;;;;;;;;;;;;13.46;54.98;97411.94;4472718;32;19999;-77
2023/12/24 12:11:15;;;;;;;;;;;;;;;13.73;55.04;97418.84;4472655;32;20376;-77
2023/12/24 12:13:42;;;;;;;;;;;;;;;14.08;53.71;97421.72;4472270;32;20016;-78
2023/12/24 12:16:09;;;;;;;;;;;;;;;14.10;54.31;97422.44;4472448;32;20040;-78
2023/12/24 12:18:36;;;;;;;;;;;;;;;14.16;54.12;97416.84;4472739;32;19998;-78
2023/12/24 12:21:03;;;;;;;;;;;;;;;14.39;52.49;97417.87;4472122;32;19968;-78
2023/12/24 12:23:29;;;;;;;;;;;;;;;14.22;53.25;97418.19;4472532;32;19964;-78
2023/12/24 12:25:56;;;;;;;;;;;;;;;14.37;52.10;97417.16;4472400;32;19980;-78
2023/12/24 12:28:24;;;;;;;;;;;;;;;14.67;51.27;97404.72;4472333;32;20040;-78
2023/12/24 12:30:51;;;;;;;;;;;;;;;14.84;50.45;97403.50;4472584;32;19972;-78
2023/12/24 12:33:17;;;;;;;;;;;;;;;15.12;49.75;97405.00;4472529;32;20554;-78
2023/12/24 12:35:44;;;;;;;;;;;;;;;15.10;49.98;97406.03;4472308;32;19972;-78
2023/12/24 12:38:11;;;;;;;;;;;;;;;15.33;50.33;97408.66;4458560;32;20003;-78
2023/12/24 12:40:38;;;;;;;;;;;;;;;15.15;50.27;97416.94;4472362;32;19972;-78
2023/12/24 12:43:14;;;;;;;;;;;;;;;15.29;50.49;97417.59;4472483;32;19976;-78
2023/12/24 12:45:40;;;;;;;;;;;;;;;15.34;50.98;97412.94;4472108;32;20303;-78
2023/12/24 12:48:08;;;;;;;;;;;;;;;15.05;50.77;97419.34;4472400;32;20007;-84
2023/12/24 12:50:35;;;;;;;;;;;;;;;14.70;50.79;97417.47;4472542;32;20371;-83
2023/12/24 12:53:02;;;;;;;;;;;;;;;14.45;49.56;97414.88;4472293;32;20285;-83